Time;durP1;ratioP1;P1;durP2;ratioP2;P2;SDS_P1;SDS_P2;PMS_P1;PMS_P2;Temp;Humidity;BMP_temperature;BMP_pressure;BME280_temperature;BME280_humidity;BME280_pressure;Samples;Min_cycle;Max_cycle;Signal;HPM_P1;HPM_P2
2024/03/02 06:00:27;;;;;;;49.77;23.40;;;;;;;;;;6169933;23;20441;-92
2024/03/02 06:02:53;;;;;;;53.43;21.33;;;;;;;;;;4972598;28;20578;-77
2024/03/02 06:05:19;;;;;;;54.47;23.53;;;;;;;;;;4988732;28;20443;-77
2024/03/02 06:07:45;;;;;;;46.30;20.17;;;;;;;;;;4974011;28;20537;-75
2024/03/02 06:10:11;;;;;;;53.50;21.07;;;;;;;;;;4974584;28;20487;-75
2024/03/02 06:12:37;;;;;;;53.27;23.03;;;;;;;;;;4993096;28;20449;-77
2024/03/02 06:15:03;;;;;;;48.33;19.47;;;;;;;;;;4996073;28;20557;-76
2024/03/02 06:17:30;;;;;;;55.77;22.70;;;;;;;;;;4993556;28;20829;-77
2024/03/02 06:19:56;;;;;;;56.37;21.43;;;;;;;;;;4993128;28;20450;-76
2024/03/02 06:22:24;;;;;;;53.63;22.40;;;;;;;;;;4994178;28;20443;-77
2024/03/02 06:24:50;;;;;;;49.27;21.93;;;;;;;;;;4994035;28;20415;-76
2024/03/02 06:27:16;;;;;;;51.40;19.13;;;;;;;;;;4994887;28;20778;-76
2024/03/02 06:29:42;;;;;;;52.10;21.63;;;;;;;;;;5009297;28;20407;-76
2024/03/02 06:32:08;;;;;;;57.23;22.03;;;;;;;;;;5018241;28;20462;-75
2024/03/02 06:34:34;;;;;;;58.37;24.30;;;;;;;;;;5011405;28;20435;-77
2024/03/02 06:37:00;;;;;;;50.27;21.97;;;;;;;;;;4993613;28;20423;-76
2024/03/02 06:39:26;;;;;;;52.43;22.30;;;;;;;;;;4993127;28;20537;-76
2024/03/02 06:41:52;;;;;;;65.93;24.57;;;;;;;;;;4991728;28;20443;-76
2024/03/02 06:44:18;;;;;;;55.70;23.10;;;;;;;;;;4993141;28;20460;-76
2024/03/02 06:46:44;;;;;;;59.70;24.47;;;;;;;;;;4991892;28;20429;-76
2024/03/02 06:49:10;;;;;;;54.20;22.73;;;;;;;;;;4992043;28;20875;-77
2024/03/02 06:51:36;;;;;;;54.57;21.40;;;;;;;;;;4993189;28;20441;-76
2024/03/02 06:54:02;;;;;;;52.20;23.00;;;;;;;;;;4991798;28;20490;-76
2024/03/02 06:56:28;;;;;;;50.60;21.63;;;;;;;;;;4992912;28;20427;-77
2024/03/02 06:58:54;;;;;;;53.60;21.20;;;;;;;;;;4993098;28;20462;-76
2024/03/02 07:01:20;;;;;;;52.27;21.73;;;;;;;;;;4991515;28;20985;-77
2024/03/02 07:03:46;;;;;;;53.57;21.23;;;;;;;;;;5001177;28;20413;-76
2024/03/02 07:06:12;;;;;;;48.80;20.10;;;;;;;;;;5006248;28;20454;-77
2024/03/02 07:08:38;;;;;;;40.20;16.93;;;;;;;;;;4993629;28;20773;-77
2024/03/02 07:11:04;;;;;;;40.60;17.73;;;;;;;;;;4993394;28;20437;-77
2024/03/02 07:13:30;;;;;;;39.10;17.73;;;;;;;;;;4993312;28;20407;-77
2024/03/02 07:18:50;;;;;;;40.30;17.70;;;;;;;;;;4993047;28;20458;-76
2024/03/02 07:21:16;;;;;;;39.70;17.50;;;;;;;;;;4993150;28;20429;-76
2024/03/02 07:23:42;;;;;;;35.57;15.87;;;;;;;;;;4992844;28;20411;-76
2024/03/02 07:26:08;;;;;;;28.73;15.53;;;;;;;;;;4995014;28;20430;-77
2024/03/02 07:28:34;;;;;;;27.47;15.13;;;;;;;;;;4998041;28;20505;-77
2024/03/02 07:31:04;;;;;;;26.20;13.80;;;;;;;;;;4998827;28;20442;-77
2024/03/02 07:33:30;;;;;;;27.90;13.13;;;;;;;;;;4997655;28;20415;-77
2024/03/02 07:35:56;;;;;;;23.53;11.90;;;;;;;;;;4998338;28;20973;-77
2024/03/02 07:38:22;;;;;;;27.03;13.70;;;;;;;;;;4993537;28;20454;-77
2024/03/02 07:40:53;;;;;;;21.50;12.23;;;;;;;;;;4993683;28;20808;-77
2024/03/02 07:43:19;;;;;;;22.17;12.80;;;;;;;;;;4994971;28;20452;-77
2024/03/02 07:45:45;;;;;;;20.03;11.17;;;;;;;;;;4994655;28;20581;-77
2024/03/02 07:48:11;;;;;;;23.83;12.50;;;;;;;;;;4994213;28;20418;-76
2024/03/02 07:50:38;;;;;;;18.30;10.87;;;;;;;;;;4994202;28;20435;-77
2024/03/02 07:53:04;;;;;;;25.00;12.07;;;;;;;;;;4992155;28;20415;-77
2024/03/02 07:55:30;;;;;;;20.80;11.17;;;;;;;;;;4993155;28;20426;-77
2024/03/02 07:57:57;;;;;;;20.27;10.80;;;;;;;;;;4991222;28;20468;-77
2024/03/02 08:00:23;;;;;;;25.40;11.87;;;;;;;;;;4992685;28;20411;-77
2024/03/02 08:02:50;;;;;;;28.63;11.80;;;;;;;;;;4991294;28;20423;-77
2024/03/02 08:05:18;;;;;;;23.97;11.17;;;;;;;;;;4992520;28;20470;-77
2024/03/02 08:07:44;;;;;;;27.57;11.50;;;;;;;;;;4992564;28;20418;-77
2024/03/02 08:10:10;;;;;;;19.37;10.67;;;;;;;;;;4992131;28;20929;-77
2024/03/02 08:12:36;;;;;;;19.23;10.50;;;;;;;;;;4995202;28;20415;-77
2024/03/02 08:15:02;;;;;;;18.53;10.03;;;;;;;;;;4994580;28;20842;-77
2024/03/02 08:17:28;;;;;;;17.50;10.27;;;;;;;;;;4996396;28;20433;-77
2024/03/02 08:19:54;;;;;;;18.20;10.80;;;;;;;;;;4995053;28;20418;-77
2024/03/02 08:22:20;;;;;;;22.23;10.80;;;;;;;;;;4996145;28;20938;-77
2024/03/02 08:24:47;;;;;;;19.70;11.53;;;;;;;;;;4995868;28;20415;-77
2024/03/02 08:27:13;;;;;;;16.57;9.90;;;;;;;;;;4996119;28;20414;-77
2024/03/02 08:29:39;;;;;;;17.40;9.83;;;;;;;;;;4996504;28;20751;-77
2024/03/02 08:32:05;;;;;;;17.47;9.30;;;;;;;;;;4994659;28;20439;-77
2024/03/02 08:34:31;;;;;;;17.77;9.43;;;;;;;;;;4996024;28;20775;-77
2024/03/02 08:36:57;;;;;;;16.30;9.33;;;;;;;;;;4996984;28;20411;-77
2024/03/02 08:39:23;;;;;;;17.70;10.47;;;;;;;;;;4995809;28;21028;-78
2024/03/02 08:41:49;;;;;;;16.53;8.73;;;;;;;;;;4997782;28;20933;-78
2024/03/02 08:44:15;;;;;;;18.83;9.13;;;;;;;;;;4995092;28;20404;-78
2024/03/02 08:46:41;;;;;;;23.20;10.03;;;;;;;;;;4996903;28;20434;-78
2024/03/02 08:49:08;;;;;;;17.17;9.40;;;;;;;;;;4995259;28;20431;-78
2024/03/02 08:51:34;;;;;;;13.73;9.00;;;;;;;;;;4996024;28;20930;-77
2024/03/02 08:53:59;;;;;;;21.73;10.13;;;;;;;;;;4995868;28;20493;-77
2024/03/02 08:56:26;;;;;;;16.17;9.53;;;;;;;;;;4996402;28;20921;-77
2024/03/02 08:58:52;;;;;;;18.23;9.63;;;;;;;;;;4997285;28;20462;-77
2024/03/02 09:01:19;;;;;;;12.63;7.90;;;;;;;;;;4994618;28;21020;-78
2024/03/02 09:03:45;;;;;;;13.40;8.57;;;;;;;;;;4992428;28;20414;-78
2024/03/02 09:06:12;;;;;;;14.40;8.43;;;;;;;;;;4976440;28;20566;-77
2024/03/02 09:08:38;;;;;;;14.20;8.50;;;;;;;;;;4990828;28;20419;-78
2024/03/02 09:11:05;;;;;;;17.33;8.50;;;;;;;;;;4995730;28;20432;-78
2024/03/02 09:13:31;;;;;;;14.40;8.77;;;;;;;;;;4996811;28;20415;-78
2024/03/02 09:15:57;;;;;;;13.77;8.67;;;;;;;;;;4995572;28;20419;-75
2024/03/02 09:18:23;;;;;;;14.20;8.53;;;;;;;;;;4998726;28;20459;-78
2024/03/02 09:20:49;;;;;;;17.57;8.97;;;;;;;;;;4991080;28;20505;-79
2024/03/02 09:23:15;;;;;;;14.13;8.33;;;;;;;;;;5011972;28;20446;-78
2024/03/02 09:25:41;;;;;;;11.00;7.40;;;;;;;;;;4998470;28;20441;-74
2024/03/02 09:28:07;;;;;;;12.00;6.53;;;;;;;;;;4994012;28;20984;-74
2024/03/02 09:30:33;;;;;;;12.93;7.43;;;;;;;;;;4993268;28;20518;-76
2024/03/02 09:32:59;;;;;;;11.43;6.90;;;;;;;;;;4994028;28;20430;-75
2024/03/02 09:35:25;;;;;;;10.63;7.13;;;;;;;;;;4979361;28;20895;-75
2024/03/02 09:37:51;;;;;;;9.43;6.03;;;;;;;;;;4974435;28;20537;-75
2024/03/02 09:40:17;;;;;;;10.37;6.50;;;;;;;;;;4985981;28;20435;-81
2024/03/02 09:42:43;;;;;;;11.03;7.03;;;;;;;;;;5001304;28;20421;-82
2024/03/02 09:45:10;;;;;;;9.73;6.67;;;;;;;;;;5005094;28;20415;-81
2024/03/02 09:47:36;;;;;;;11.40;6.90;;;;;;;;;;4992184;28;20423;-82
2024/03/02 09:50:02;;;;;;;10.83;6.80;;;;;;;;;;5003422;28;20411;-81
2024/03/02 09:52:28;;;;;;;12.30;6.80;;;;;;;;;;5012288;28;20510;-82
2024/03/02 09:54:54;;;;;;;9.03;6.50;;;;;;;;;;5017343;28;20435;-80
2024/03/02 09:57:20;;;;;;;14.30;6.50;;;;;;;;;;5000140;28;20431;-81
2024/03/02 09:59:46;;;;;;;8.70;5.83;;;;;;;;;;4995779;28;20486;-81
2024/03/02 10:02:12;;;;;;;9.13;5.87;;;;;;;;;;4995132;28;20478;-81
2024/03/02 10:04:38;;;;;;;12.00;6.57;;;;;;;;;;4996534;28;20952;-81
2024/03/02 10:07:14;;;;;;;8.43;5.63;;;;;;;;;;4994317;28;20961;-80
2024/03/02 10:09:40;;;;;;;8.10;5.50;;;;;;;;;;4996325;28;20418;-80
2024/03/02 10:12:07;;;;;;;10.00;6.00;;;;;;;;;;4995053;28;20435;-82
2024/03/02 10:14:34;;;;;;;9.83;6.40;;;;;;;;;;4993159;28;20424;-81
2024/03/02 10:17:07;;;;;;;7.63;5.77;;;;;;;;;;4994737;28;20423;-81
2024/03/02 10:19:34;;;;;;;8.37;5.90;;;;;;;;;;4997996;28;20459;-82
2024/03/02 10:22:02;;;;;;;7.33;5.30;;;;;;;;;;4999602;28;20473;-81
2024/03/02 10:24:28;;;;;;;7.10;4.70;;;;;;;;;;4997347;28;20423;-81
2024/03/02 10:26:56;;;;;;;7.93;5.33;;;;;;;;;;4996280;28;20427;-81
2024/03/02 10:29:22;;;;;;;7.17;5.10;;;;;;;;;;4998959;28;20423;-81
2024/03/02 10:31:48;;;;;;;9.70;5.40;;;;;;;;;;4998432;28;20443;-80
2024/03/02 10:34:16;;;;;;;9.43;5.70;;;;;;;;;;4997506;28;20757;-81
2024/03/02 10:36:42;;;;;;;9.50;5.43;;;;;;;;;;4991648;28;20615;-80
2024/03/02 10:39:09;;;;;;;10.07;5.80;;;;;;;;;;4994961;28;20517;-80
2024/03/02 10:41:36;;;;;;;7.47;5.37;;;;;;;;;;4991794;28;20823;-80
2024/03/02 10:44:09;;;;;;;8.80;6.13;;;;;;;;;;4995365;28;20438;-79
2024/03/02 10:46:36;;;;;;;8.00;5.30;;;;;;;;;;4992806;28;20425;-76
2024/03/02 10:49:03;;;;;;;7.87;5.27;;;;;;;;;;4976994;28;20458;-77
2024/03/02 10:51:33;;;;;;;9.93;6.43;;;;;;;;;;4996285;28;20498;-81
2024/03/02 10:54:03;;;;;;;9.10;5.77;;;;;;;;;;4995659;28;20406;-76
2024/03/02 10:56:29;;;;;;;6.90;5.03;;;;;;;;;;4996062;28;20423;-78
2024/03/02 10:59:01;;;;;;;9.13;4.90;;;;;;;;;;4993470;28;20866;-77
2024/03/02 11:01:28;;;;;;;7.50;4.77;;;;;;;;;;4996603;28;20541;-77
2024/03/02 11:03:54;;;;;;;7.00;5.40;;;;;;;;;;4990230;28;20486;-78
2024/03/02 11:06:21;;;;;;;9.90;5.70;;;;;;;;;;4995711;28;20438;-78
2024/03/02 11:08:49;;;;;;;7.73;4.97;;;;;;;;;;4992522;28;20435;-77
2024/03/02 11:11:22;;;;;;;9.67;5.70;;;;;;;;;;4995455;28;20525;-79
2024/03/02 11:13:50;;;;;;;8.93;5.10;;;;;;;;;;4996778;28;20415;-79
2024/03/02 11:16:21;;;;;;;7.07;5.37;;;;;;;;;;4994968;28;20418;-77
2024/03/02 11:18:49;;;;;;;9.13;4.70;;;;;;;;;;4993590;28;20494;-76
2024/03/02 11:21:15;;;;;;;5.27;4.03;;;;;;;;;;4990283;28;20432;-76
2024/03/02 11:23:41;;;;;;;6.30;4.03;;;;;;;;;;4989806;28;20416;-79
2024/03/02 11:26:20;;;;;;;8.13;4.30;;;;;;;;;;4993022;28;20800;-76
2024/03/02 11:28:46;;;;;;;7.83;3.90;;;;;;;;;;4993076;28;20411;-75
2024/03/02 11:31:12;;;;;;;5.73;4.00;;;;;;;;;;4992515;28;20795;-77
2024/03/02 11:33:38;;;;;;;6.87;3.43;;;;;;;;;;4995346;28;20489;-77
2024/03/02 11:36:06;;;;;;;4.10;3.33;;;;;;;;;;4994006;28;20719;-77
2024/03/02 11:38:33;;;;;;;5.53;3.13;;;;;;;;;;4990548;28;20587;-78
2024/03/02 11:41:07;;;;;;;5.80;3.20;;;;;;;;;;4990651;28;20446;-75
2024/03/02 11:43:33;;;;;;;4.43;2.40;;;;;;;;;;4983190;28;20497;-78
2024/03/02 11:46:06;;;;;;;4.90;2.93;;;;;;;;;;4988706;28;20499;-80
2024/03/02 11:48:33;;;;;;;5.30;2.77;;;;;;;;;;4997722;28;20458;-77
2024/03/02 11:51:00;;;;;;;4.20;2.13;;;;;;;;;;4997061;28;20434;-77
2024/03/02 11:53:28;;;;;;;2.57;1.70;;;;;;;;;;4996763;28;20516;-77
2024/03/02 11:55:55;;;;;;;5.67;2.00;;;;;;;;;;4996812;28;20411;-77
2024/03/02 11:58:24;;;;;;;5.30;2.23;;;;;;;;;;4997356;28;20470;-77
2024/03/02 12:00:55;;;;;;;2.07;1.70;;;;;;;;;;4995841;28;20459;-77
2024/03/02 12:03:22;;;;;;;6.50;1.80;;;;;;;;;;4996568;28;20465;-77
2024/03/02 12:05:51;;;;;;;4.23;1.30;;;;;;;;;;4996573;28;20403;-77
2024/03/02 12:08:18;;;;;;;2.10;1.40;;;;;;;;;;4996728;28;20446;-77
2024/03/02 12:10:43;;;;;;;2.13;1.23;;;;;;;;;;4996210;28;20461;-77
2024/03/02 12:13:11;;;;;;;3.33;1.60;;;;;;;;;;4995195;28;20419;-77
2024/03/02 12:15:38;;;;;;;2.23;1.50;;;;;;;;;;4994322;28;20855;-77
2024/03/02 12:18:04;;;;;;;3.20;1.57;;;;;;;;;;4993945;28;20957;-77
2024/03/02 12:20:31;;;;;;;2.07;1.40;;;;;;;;;;4995212;28;20517;-78
2024/03/02 12:23:00;;;;;;;1.83;1.40;;;;;;;;;;4995101;28;20402;-77
2024/03/02 12:25:27;;;;;;;2.80;1.60;;;;;;;;;;4995633;28;20522;-77
2024/03/02 12:27:54;;;;;;;3.17;1.77;;;;;;;;;;4995327;28;20910;-78
2024/03/02 12:30:20;;;;;;;2.40;1.37;;;;;;;;;;4995317;28;20410;-77
2024/03/02 12:32:47;;;;;;;3.57;2.00;;;;;;;;;;4995091;28;20886;-78
2024/03/02 12:35:16;;;;;;;2.53;1.27;;;;;;;;;;4995225;28;20890;-78
2024/03/02 12:37:46;;;;;;;2.87;1.50;;;;;;;;;;4995404;28;20477;-78
2024/03/02 12:40:12;;;;;;;1.90;1.40;;;;;;;;;;4995261;28;20415;-78
2024/03/02 12:42:39;;;;;;;3.50;2.53;;;;;;;;;;4994664;28;20455;-77
2024/03/02 12:45:05;;;;;;;4.80;2.00;;;;;;;;;;4995301;28;20411;-77
2024/03/02 12:47:31;;;;;;;5.20;2.30;;;;;;;;;;4995179;28;20453;-77
2024/03/02 12:49:57;;;;;;;5.10;1.93;;;;;;;;;;4994067;28;20446;-77
2024/03/02 12:52:23;;;;;;;3.17;1.73;;;;;;;;;;4995096;28;20431;-77
2024/03/02 12:54:50;;;;;;;2.47;1.40;;;;;;;;;;4995494;28;20453;-77
2024/03/02 12:57:19;;;;;;;3.27;1.90;;;;;;;;;;5001201;28;20441;-76
2024/03/02 12:59:49;;;;;;;2.63;1.67;;;;;;;;;;5008379;28;20474;-78
2024/03/02 13:02:18;;;;;;;3.23;1.40;;;;;;;;;;5004183;28;20456;-76
2024/03/02 13:04:44;;;;;;;1.70;1.10;;;;;;;;;;5015086;28;20422;-77
2024/03/02 13:07:13;;;;;;;3.00;1.27;;;;;;;;;;5016491;28;20443;-77
2024/03/02 13:09:40;;;;;;;3.07;1.20;;;;;;;;;;5017778;28;20434;-76
2024/03/02 13:12:06;;;;;;;1.43;1.10;;;;;;;;;;5016112;28;20438;-77
2024/03/02 13:14:35;;;;;;;1.60;1.20;;;;;;;;;;5017998;28;20459;-77
2024/03/02 13:17:05;;;;;;;2.00;1.80;;;;;;;;;;5013014;28;20427;-76
2024/03/02 13:19:31;;;;;;;1.67;1.20;;;;;;;;;;5012784;28;20501;-76
2024/03/02 13:21:57;;;;;;;1.80;1.40;;;;;;;;;;4992695;28;20439;-76
2024/03/02 13:24:28;;;;;;;2.47;1.30;;;;;;;;;;4994190;28;20466;-76
2024/03/02 13:26:55;;;;;;;1.60;1.10;;;;;;;;;;4992677;28;20411;-76
2024/03/02 13:29:22;;;;;;;1.23;1.20;;;;;;;;;;4994926;28;20421;-76
2024/03/02 13:31:48;;;;;;;2.03;1.40;;;;;;;;;;4999989;28;20435;-79
2024/03/02 13:34:14;;;;;;;1.43;1.20;;;;;;;;;;5000665;28;20410;-78
2024/03/02 13:36:40;;;;;;;1.47;1.33;;;;;;;;;;5007515;28;20427;-77
2024/03/02 13:39:09;;;;;;;2.17;1.60;;;;;;;;;;5009978;28;20477;-78
2024/03/02 13:41:35;;;;;;;1.80;1.50;;;;;;;;;;5010611;28;20506;-76
2024/03/02 13:44:01;;;;;;;2.13;1.57;;;;;;;;;;5009292;28;20418;-76
2024/03/02 13:46:27;;;;;;;2.90;1.53;;;;;;;;;;4998038;28;20423;-77
2024/03/02 13:48:53;;;;;;;1.80;1.33;;;;;;;;;;5012910;28;20427;-76
2024/03/02 13:51:19;;;;;;;1.73;1.43;;;;;;;;;;5011901;28;20453;-76
2024/03/02 13:53:45;;;;;;;2.33;1.50;;;;;;;;;;5009925;28;20985;-77
2024/03/02 13:56:11;;;;;;;2.30;1.53;;;;;;;;;;4994523;28;20466;-77
2024/03/02 13:58:37;;;;;;;2.00;1.60;;;;;;;;;;4995043;28;20499;-77
2024/03/02 14:01:04;;;;;;;1.70;1.57;;;;;;;;;;4993904;28;20478;-77
2024/03/02 14:03:30;;;;;;;3.90;1.97;;;;;;;;;;5008658;28;20525;-76
2024/03/02 14:05:56;;;;;;;2.97;2.20;;;;;;;;;;4993560;28;20443;-77
2024/03/02 14:08:23;;;;;;;3.10;1.70;;;;;;;;;;5008284;28;20434;-77
2024/03/02 14:10:49;;;;;;;1.90;1.70;;;;;;;;;;5008863;28;20852;-77
2024/03/02 14:13:15;;;;;;;2.43;1.90;;;;;;;;;;4993216;28;20442;-76
2024/03/02 14:15:41;;;;;;;3.03;1.83;;;;;;;;;;4993775;28;20557;-77
2024/03/02 14:18:11;;;;;;;3.03;2.10;;;;;;;;;;5008479;28;20467;-77
2024/03/02 14:20:37;;;;;;;2.50;1.47;;;;;;;;;;5008390;28;20500;-76
2024/03/02 14:23:03;;;;;;;3.03;1.70;;;;;;;;;;4993018;28;20411;-77
2024/03/02 14:25:33;;;;;;;2.43;1.57;;;;;;;;;;4993011;28;20411;-76
2024/03/02 14:27:59;;;;;;;1.67;1.40;;;;;;;;;;5008031;28;20949;-76
2024/03/02 14:30:25;;;;;;;2.53;1.70;;;;;;;;;;4992844;28;20418;-76
2024/03/02 14:32:51;;;;;;;2.10;1.40;;;;;;;;;;4992861;28;20890;-76
2024/03/02 14:35:17;;;;;;;3.17;1.83;;;;;;;;;;4992967;28;20869;-77
2024/03/02 14:37:43;;;;;;;3.13;1.63;;;;;;;;;;4993607;28;20502;-77
2024/03/02 14:40:09;;;;;;;2.33;1.50;;;;;;;;;;4993364;28;20914;-77
2024/03/02 14:42:36;;;;;;;4.10;1.80;;;;;;;;;;4992722;28;20735;-76
2024/03/02 14:45:05;;;;;;;3.13;1.87;;;;;;;;;;5007621;28;20415;-77
2024/03/02 14:47:35;;;;;;;2.20;1.63;;;;;;;;;;4992682;28;20422;-77
2024/03/02 14:50:05;;;;;;;4.30;1.60;;;;;;;;;;4993249;28;20903;-77
2024/03/02 14:52:31;;;;;;;2.70;1.60;;;;;;;;;;4992435;28;20534;-77
2024/03/02 14:54:57;;;;;;;2.10;1.50;;;;;;;;;;4992558;28;20499;-76
2024/03/02 14:57:23;;;;;;;3.07;1.50;;;;;;;;;;5007318;28;20430;-77
2024/03/02 14:59:49;;;;;;;2.00;1.60;;;;;;;;;;4992415;28;20868;-77
2024/03/02 15:02:15;;;;;;;3.57;2.00;;;;;;;;;;4992567;28;20795;-77
2024/03/02 15:04:45;;;;;;;2.50;1.90;;;;;;;;;;4992729;28;20418;-77
2024/03/02 15:07:11;;;;;;;5.23;1.90;;;;;;;;;;4992016;28;20511;-77
2024/03/02 15:09:37;;;;;;;3.17;2.00;;;;;;;;;;4991769;28;20417;-77
2024/03/02 15:12:03;;;;;;;3.20;2.17;;;;;;;;;;5006591;28;20577;-77
2024/03/02 15:14:29;;;;;;;2.53;1.97;;;;;;;;;;4991832;28;20426;-77
2024/03/02 15:16:56;;;;;;;5.43;2.10;;;;;;;;;;4992738;28;20411;-77
2024/03/02 15:19:22;;;;;;;3.20;2.00;;;;;;;;;;4992992;28;20952;-76
2024/03/02 15:21:48;;;;;;;2.40;1.50;;;;;;;;;;4992139;28;20952;-77
2024/03/02 15:24:14;;;;;;;9.00;2.00;;;;;;;;;;4992323;28;20446;-76
2024/03/02 15:26:40;;;;;;;2.80;1.80;;;;;;;;;;5008047;28;20845;-76
2024/03/02 15:29:06;;;;;;;3.57;1.63;;;;;;;;;;4992616;28;20430;-78
2024/03/02 15:31:32;;;;;;;2.17;1.80;;;;;;;;;;4993105;28;20446;-78
2024/03/02 15:33:58;;;;;;;3.77;2.33;;;;;;;;;;5007604;28;20518;-78
2024/03/02 15:36:24;;;;;;;8.90;1.87;;;;;;;;;;4993391;28;20419;-78
2024/03/02 15:38:50;;;;;;;1.67;1.57;;;;;;;;;;4993342;28;20969;-78
2024/03/02 15:41:16;;;;;;;4.70;2.37;;;;;;;;;;4992860;28;20497;-76
2024/03/02 15:43:42;;;;;;;1.70;1.30;;;;;;;;;;5006868;28;20434;-78
2024/03/02 15:46:09;;;;;;;4.13;1.60;;;;;;;;;;4990127;28;20469;-78
2024/03/02 15:48:35;;;;;;;4.10;2.30;;;;;;;;;;4990649;28;20469;-77
2024/03/02 15:51:04;;;;;;;2.30;2.13;;;;;;;;;;4991307;28;20441;-77
2024/03/02 15:53:30;;;;;;;4.80;1.83;;;;;;;;;;5006490;28;20418;-78
2024/03/02 15:55:55;;;;;;;3.73;1.80;;;;;;;;;;4992252;28;20415;-77
2024/03/02 15:58:21;;;;;;;5.60;2.10;;;;;;;;;;4992824;28;20459;-78
2024/03/02 16:00:47;;;;;;;2.60;1.50;;;;;;;;;;4992772;28;20902;-77
2024/03/02 16:03:13;;;;;;;3.00;1.93;;;;;;;;;;5007724;28;20428;-77
2024/03/02 16:05:39;;;;;;;4.13;1.83;;;;;;;;;;4992034;28;20411;-77
2024/03/02 16:08:05;;;;;;;3.43;2.20;;;;;;;;;;5006766;28;20427;-77
2024/03/02 16:10:32;;;;;;;2.10;1.93;;;;;;;;;;4991745;28;20471;-75
2024/03/02 16:12:59;;;;;;;4.77;2.40;;;;;;;;;;4991284;28;20903;-77
2024/03/02 16:15:26;;;;;;;2.83;2.63;;;;;;;;;;4992079;28;20498;-77
2024/03/02 16:17:52;;;;;;;4.33;2.50;;;;;;;;;;4991839;28;20455;-77
2024/03/02 16:20:18;;;;;;;3.27;2.63;;;;;;;;;;4991725;28;20458;-77
2024/03/02 16:22:44;;;;;;;6.07;2.07;;;;;;;;;;4991989;28;20414;-77
2024/03/02 16:25:10;;;;;;;2.60;2.00;;;;;;;;;;4992229;28;20477;-77
2024/03/02 16:27:36;;;;;;;3.00;2.20;;;;;;;;;;5028206;28;20497;-79
2024/03/02 16:30:03;;;;;;;3.43;2.20;;;;;;;;;;5015402;28;20416;-78
2024/03/02 16:32:29;;;;;;;7.30;2.60;;;;;;;;;;5005564;28;20435;-76
2024/03/02 16:34:55;;;;;;;3.27;2.93;;;;;;;;;;4995488;28;20902;-76
2024/03/02 16:37:23;;;;;;;4.00;3.00;;;;;;;;;;4994982;28;20468;-76
2024/03/02 16:39:49;;;;;;;6.33;3.33;;;;;;;;;;5009414;28;20462;-76
2024/03/02 16:42:15;;;;;;;10.13;4.60;;;;;;;;;;5009700;28;20488;-78
2024/03/02 16:44:41;;;;;;;5.50;3.83;;;;;;;;;;5009983;28;20429;-76
2024/03/02 16:47:07;;;;;;;4.70;3.30;;;;;;;;;;4994733;28;20426;-76
2024/03/02 16:49:33;;;;;;;7.43;3.63;;;;;;;;;;4994780;28;20415;-76
2024/03/02 16:51:59;;;;;;;9.30;4.70;;;;;;;;;;5009416;28;20435;-77
2024/03/02 16:54:25;;;;;;;8.10;3.93;;;;;;;;;;4994149;28;20415;-77
2024/03/02 16:56:51;;;;;;;8.20;4.10;;;;;;;;;;5008982;28;20481;-77
2024/03/02 16:59:17;;;;;;;8.30;4.40;;;;;;;;;;4994205;28;20462;-77
2024/03/02 17:01:43;;;;;;;10.30;4.97;;;;;;;;;;4993839;28;20466;-77
2024/03/02 17:04:09;;;;;;;10.10;5.60;;;;;;;;;;4994612;28;20438;-77
2024/03/02 17:06:35;;;;;;;15.47;6.20;;;;;;;;;;5009053;28;20498;-77
2024/03/02 17:09:02;;;;;;;9.40;6.53;;;;;;;;;;5009606;28;20485;-78
2024/03/02 17:11:30;;;;;;;9.47;5.67;;;;;;;;;;5009298;28;20498;-77
2024/03/02 17:13:57;;;;;;;9.30;5.33;;;;;;;;;;4993989;28;20407;-77
2024/03/02 17:16:24;;;;;;;6.93;5.07;;;;;;;;;;4993909;28;20407;-77
2024/03/02 17:18:50;;;;;;;9.40;5.10;;;;;;;;;;4993908;28;20856;-77
2024/03/02 17:21:16;;;;;;;10.33;5.00;;;;;;;;;;4994100;28;20426;-77
2024/03/02 17:23:42;;;;;;;10.17;5.20;;;;;;;;;;4993761;28;20433;-77
2024/03/02 17:26:08;;;;;;;7.80;4.87;;;;;;;;;;5009040;28;20489;-77
2024/03/02 17:28:34;;;;;;;7.33;4.43;;;;;;;;;;5008904;28;20692;-77
2024/03/02 17:31:00;;;;;;;6.87;4.97;;;;;;;;;;4993983;28;20442;-77
2024/03/02 17:33:26;;;;;;;8.60;4.87;;;;;;;;;;4994448;28;20423;-76
2024/03/02 17:35:52;;;;;;;8.53;5.10;;;;;;;;;;4993993;28;20418;-76
2024/03/02 17:38:19;;;;;;;9.27;5.83;;;;;;;;;;4994091;28;20509;-76
2024/03/02 17:40:45;;;;;;;11.13;5.80;;;;;;;;;;4993555;28;20431;-77
2024/03/02 17:43:11;;;;;;;7.40;5.23;;;;;;;;;;4993100;28;20557;-77
2024/03/02 17:45:39;;;;;;;12.97;6.80;;;;;;;;;;4992711;28;20416;-77
2024/03/02 17:48:05;;;;;;;14.30;6.90;;;;;;;;;;4998960;28;20530;-77
2024/03/02 17:50:31;;;;;;;11.00;7.20;;;;;;;;;;4995938;28;20443;-77
2024/03/02 17:52:57;;;;;;;13.80;6.60;;;;;;;;;;4970985;28;20412;-77
2024/03/02 17:55:23;;;;;;;11.70;6.63;;;;;;;;;;4973880;28;20498;-77
2024/03/02 17:57:50;;;;;;;16.03;7.10;;;;;;;;;;4973324;28;20434;-77
2024/03/02 18:00:17;;;;;;;13.30;7.17;;;;;;;;;;4972151;28;20519;-78
2024/03/02 18:02:43;;;;;;;11.17;7.17;;;;;;;;;;4975953;28;20439;-75
2024/03/02 18:05:09;;;;;;;13.13;7.70;;;;;;;;;;4991755;28;20427;-75
2024/03/02 18:07:36;;;;;;;14.40;8.40;;;;;;;;;;5007221;28;20443;-74
2024/03/02 18:10:05;;;;;;;15.60;8.33;;;;;;;;;;4992190;28;20419;-75
2024/03/02 18:12:31;;;;;;;17.70;9.40;;;;;;;;;;4993155;28;20443;-74
2024/03/02 18:14:57;;;;;;;19.57;8.90;;;;;;;;;;4991043;28;20447;-72
2024/03/02 18:17:23;;;;;;;19.50;9.77;;;;;;;;;;4990762;28;20430;-76
2024/03/02 18:19:53;;;;;;;23.27;11.93;;;;;;;;;;4992421;28;20462;-75
2024/03/02 18:22:19;;;;;;;22.77;11.83;;;;;;;;;;4992575;28;20809;-76
2024/03/02 18:24:45;;;;;;;22.27;11.63;;;;;;;;;;4984752;28;20427;-77
2024/03/02 18:27:12;;;;;;;25.87;13.00;;;;;;;;;;4992539;28;20462;-77
2024/03/02 18:29:38;;;;;;;25.90;13.23;;;;;;;;;;4993655;28;20423;-77
2024/03/02 18:32:04;;;;;;;28.17;12.37;;;;;;;;;;4993693;28;20839;-74
2024/03/02 18:34:30;;;;;;;27.93;11.30;;;;;;;;;;4992425;28;20429;-76
2024/03/02 18:36:56;;;;;;;27.30;12.13;;;;;;;;;;4992430;28;20435;-75
2024/03/02 18:39:22;;;;;;;29.73;13.63;;;;;;;;;;4993188;28;20515;-76
2024/03/02 18:41:48;;;;;;;26.53;12.50;;;;;;;;;;4984227;28;20434;-76
2024/03/02 18:44:14;;;;;;;22.27;12.30;;;;;;;;;;4992346;28;20891;-74
2024/03/02 18:46:40;;;;;;;30.10;12.43;;;;;;;;;;4992911;28;20748;-75
2024/03/02 18:49:06;;;;;;;24.70;12.33;;;;;;;;;;4992819;28;20422;-75
2024/03/02 18:51:32;;;;;;;29.07;12.37;;;;;;;;;;4990521;28;20450;-75
2024/03/02 18:53:58;;;;;;;24.07;12.80;;;;;;;;;;4990847;28;20438;-75
2024/03/02 18:56:24;;;;;;;30.27;14.10;;;;;;;;;;4989792;28;20493;-74
2024/03/02 18:58:50;;;;;;;28.97;14.03;;;;;;;;;;4992152;28;20479;-75
2024/03/02 19:01:16;;;;;;;24.50;11.53;;;;;;;;;;4992299;28;20632;-75
2024/03/02 19:03:42;;;;;;;21.53;11.37;;;;;;;;;;4992126;28;20411;-76
2024/03/02 19:06:14;;;;;;;25.37;13.10;;;;;;;;;;4992075;28;20411;-74
2024/03/02 19:08:39;;;;;;;24.33;12.40;;;;;;;;;;4992035;28;20498;-74
2024/03/02 19:11:05;;;;;;;23.93;12.13;;;;;;;;;;4991949;28;20458;-74
2024/03/02 19:13:31;;;;;;;26.13;12.90;;;;;;;;;;4984376;28;20486;-73
2024/03/02 19:15:57;;;;;;;23.90;11.77;;;;;;;;;;4992229;28;20419;-73
2024/03/02 19:18:23;;;;;;;29.13;12.03;;;;;;;;;;4994871;28;20530;-81
2024/03/02 19:20:51;;;;;;;19.70;11.50;;;;;;;;;;4999194;28;20570;-81
2024/03/02 19:23:17;;;;;;;24.07;11.10;;;;;;;;;;4997787;28;20430;-80
2024/03/02 19:25:43;;;;;;;20.07;12.17;;;;;;;;;;4994210;28;20415;-81
2024/03/02 19:28:09;;;;;;;21.97;11.20;;;;;;;;;;4996713;28;20438;-80
2024/03/02 19:30:36;;;;;;;28.33;12.50;;;;;;;;;;4998046;28;20488;-80
2024/03/02 19:33:01;;;;;;;21.90;11.60;;;;;;;;;;4992280;28;20506;-80
2024/03/02 19:35:28;;;;;;;24.60;14.30;;;;;;;;;;4987393;28;20451;-80
2024/03/02 19:37:55;;;;;;;27.60;12.20;;;;;;;;;;5013459;28;20431;-74
2024/03/02 19:40:22;;;;;;;23.97;12.80;;;;;;;;;;5015225;28;20414;-73
2024/03/02 19:42:48;;;;;;;30.20;13.67;;;;;;;;;;5001814;28;20439;-74
2024/03/02 19:45:14;;;;;;;31.47;14.80;;;;;;;;;;4992439;28;20761;-74
2024/03/02 19:47:41;;;;;;;32.00;13.83;;;;;;;;;;4990526;28;20485;-74
2024/03/02 19:50:12;;;;;;;27.20;13.43;;;;;;;;;;4984218;28;20430;-74
2024/03/02 19:52:38;;;;;;;34.83;14.70;;;;;;;;;;4991989;28;20419;-74
2024/03/02 19:55:05;;;;;;;29.00;14.73;;;;;;;;;;4991450;28;20961;-73
2024/03/02 19:57:35;;;;;;;28.03;15.10;;;;;;;;;;4992156;28;20419;-74
2024/03/02 20:00:01;;;;;;;30.13;14.57;;;;;;;;;;4991148;28;20481;-74
2024/03/02 20:02:27;;;;;;;30.33;13.50;;;;;;;;;;4986675;28;20487;-74
2024/03/02 20:04:53;;;;;;;30.73;15.63;;;;;;;;;;4991534;28;20758;-78
2024/03/02 20:07:19;;;;;;;33.87;15.00;;;;;;;;;;4984582;28;20419;-75
2024/03/02 20:09:47;;;;;;;32.20;15.50;;;;;;;;;;4991493;28;20424;-75
2024/03/02 20:12:13;;;;;;;36.43;16.93;;;;;;;;;;4990514;28;20820;-76
2024/03/02 20:14:41;;;;;;;38.17;16.10;;;;;;;;;;4994721;28;20415;-76
2024/03/02 20:17:06;;;;;;;38.70;16.27;;;;;;;;;;5009718;28;20427;-74
2024/03/02 20:19:32;;;;;;;36.60;15.40;;;;;;;;;;5009894;28;20466;-75
2024/03/02 20:21:58;;;;;;;33.50;15.73;;;;;;;;;;4994441;28;20557;-78
2024/03/02 20:24:24;;;;;;;33.80;16.30;;;;;;;;;;4995425;28;20423;-77
2024/03/02 20:26:50;;;;;;;31.70;16.07;;;;;;;;;;4997948;28;20910;-78
2024/03/02 20:29:16;;;;;;;36.43;17.10;;;;;;;;;;4996248;28;20525;-77
2024/03/02 20:31:42;;;;;;;38.70;16.87;;;;;;;;;;4995064;28;20437;-77